Impacts TAF Board
For situational awareness. Not to be used for flight planning purposes.
IDs:

KDCA - Washington/National, VA, US

Issued at 1743 UTC 20 Sep 2018
Updated at 2040 UTC 20 Sep 2018
Potential Impact None Slight Moderate High
Time1952Z 20/21Z 20/22Z 20/23Z 21/00Z 21/01Z 21/02Z 21/03Z 21/04Z 21/05Z 21/06Z 21/07Z 21/08Z 21/09Z>>
Type OBS PRVL PRVL PRVL PRVL PRVL PRVL PRVL PRVL PRVL PRVL PRVL PRVL PRVL
VIS 10 >6 >6 >6 >6 >6 >6 >6 >6 >6 >6 >6 >6 >6
CIG 40 40 40 40 40 40 40 25 25 25 25 25 25 25
Cover BKN BKN BKN BKN BKN BKN BKN BKN BKN BKN BKN BKN BKN BKN
FltCat VFR VFR VFR VFR VFR VFR VFR MVFR MVFR MVFR MVFR MVFR MVFR MVFR
WX -- -- -- -- -- -- -- -- -- -- -- -- -- --
WDir 150 150 150 150 150 150 150 140 140 140 140 140 140 140
WSpd 6 7 7 7 7 7 7 6 6 6 6 6 6 6
WGst -- -- -- -- -- -- -- -- -- -- -- -- -- --
Raw TAF
KDCA 201743Z 2018/2124 15007KT P6SM SCT025 BKN040
  FM210300 14006KT P6SM BKN025
  FM211300 17008KT P6SM BKN030
  FM212000 19010G17KT P6SM SCT040 SCT120


Raw METAR
KDCA 201952Z 15006KT 10SM BKN040 27/21 A3015 RMK AO2 SLP210 T02720206
KDCA 201908Z 16007KT 10SM BKN031 BKN070 28/21 A3015 RMK AO2 T02830206
KDCA 201852Z 15004KT 10SM FEW035 BKN050 28/21 A3016 RMK AO2 SLP212 T02780211
KDCA 201752Z COR 15004KT 10SM FEW035 SCT050 28/21 A3017 RMK AO2 SLP218 T02830206 10283 20217 58007

METAR Board
Radar Display
Forecast Discussion
For situational awareness. Not to be used for flight planning purposes.